createdAt,value
2023-02-12T00:00:36.553Z,22.60
2023-02-12T00:03:04.570Z,22.70
2023-02-12T00:05:32.270Z,22.70
2023-02-12T00:08:01.252Z,22.80
2023-02-12T00:10:28.968Z,22.80
2023-02-12T00:12:56.643Z,22.90
2023-02-12T00:15:24.466Z,22.90
2023-02-12T00:17:52.275Z,23.00
2023-02-12T00:20:20.200Z,23.00
2023-02-12T00:22:47.883Z,23.20
2023-02-12T00:25:18.798Z,23.20
2023-02-12T00:27:46.543Z,23.20
2023-02-12T00:30:14.606Z,23.30
2023-02-12T00:32:42.286Z,23.40
2023-02-12T00:35:10.068Z,23.40
2023-02-12T00:37:37.791Z,23.50
2023-02-12T00:40:06.263Z,23.40
2023-02-12T00:42:35.302Z,23.50
2023-02-12T00:45:02.987Z,23.60
2023-02-12T00:47:32.103Z,23.60
2023-02-12T00:49:59.802Z,23.60
2023-02-12T00:52:27.571Z,23.70
2023-02-12T00:54:55.257Z,23.80
2023-02-12T00:57:22.945Z,23.70
2023-02-12T00:59:52.058Z,23.80
2023-02-12T01:02:19.751Z,23.80
2023-02-12T01:04:47.717Z,23.90
2023-02-12T01:07:15.752Z,23.90
2023-02-12T01:09:43.553Z,24.00
2023-02-12T01:12:11.229Z,24.10
2023-02-12T01:14:38.907Z,24.10
2023-02-12T01:17:09.383Z,24.10
2023-02-12T01:19:37.080Z,24.20
2023-02-12T01:22:04.784Z,24.30
2023-02-12T01:24:32.503Z,24.30
2023-02-12T01:27:00.157Z,24.40
2023-02-12T01:29:29.374Z,24.40
2023-02-12T01:31:57.095Z,24.50
2023-02-12T01:34:26.251Z,24.50
2023-02-12T01:36:53.936Z,24.70
2023-02-12T01:39:22.194Z,24.70
2023-02-12T01:41:50.205Z,24.80
2023-02-12T01:44:19.180Z,24.80
2023-02-12T01:46:47.657Z,24.80
2023-02-12T01:49:17.856Z,24.90
2023-02-12T01:51:46.992Z,24.90
2023-02-12T01:54:14.826Z,25.00
2023-02-12T01:56:42.696Z,25.10
2023-02-12T01:59:10.470Z,25.10
2023-02-12T02:01:38.369Z,25.20
2023-02-12T02:04:08.125Z,25.20
2023-02-12T02:06:37.329Z,25.30
2023-02-12T02:09:06.417Z,25.30
2023-02-12T02:11:51.803Z,25.40
2023-02-12T02:14:34.519Z,25.40
2023-02-12T02:17:23.381Z,25.40
2023-02-12T02:20:10.551Z,25.50
2023-02-12T02:22:38.816Z,25.60
2023-02-12T02:25:47.613Z,25.60
2023-02-12T02:28:27.528Z,25.70
2023-02-12T02:30:57.100Z,25.70
2023-02-12T02:33:28.721Z,25.80
2023-02-12T02:35:59.524Z,25.80
2023-02-12T02:38:32.549Z,25.90
2023-02-12T02:41:04.355Z,26.00
2023-02-12T02:43:34.358Z,26.00
2023-02-12T02:46:05.851Z,26.00
2023-02-12T02:48:34.859Z,26.00
2023-02-12T02:51:05.064Z,26.10
2023-02-12T02:53:34.147Z,26.10
2023-02-12T02:56:03.390Z,26.10
2023-02-12T02:58:35.175Z,26.10
2023-02-12T03:01:05.909Z,26.10
2023-02-12T03:03:34.018Z,26.10
2023-02-12T03:06:04.124Z,26.20
2023-02-12T03:08:34.218Z,26.20
2023-02-12T03:11:04.749Z,26.20
2023-02-12T03:13:34.896Z,26.20
2023-02-12T03:16:06.848Z,26.20
2023-02-12T03:18:36.726Z,26.30
2023-02-12T03:21:06.574Z,26.30
2023-02-12T03:23:36.896Z,26.30
2023-02-12T03:26:05.972Z,26.20
2023-02-12T03:28:34.813Z,26.20
2023-02-12T03:31:08.968Z,26.20
2023-02-12T03:33:42.036Z,26.20
2023-02-12T03:36:14.367Z,26.20
2023-02-12T03:38:43.687Z,26.20
2023-02-12T03:41:12.905Z,26.10
2023-02-12T03:43:45.204Z,26.20
2023-02-12T03:46:16.815Z,26.10
2023-02-12T03:48:46.364Z,26.10
2023-02-12T03:51:17.466Z,26.10
2023-02-12T03:53:45.212Z,26.10
2023-02-12T03:56:14.671Z,26.10
2023-02-12T03:58:42.982Z,26.10
2023-02-12T04:01:10.769Z,26.10
2023-02-12T04:03:39.843Z,26.00
2023-02-12T04:06:20.260Z,26.00
2023-02-12T04:08:47.927Z,26.10
2023-02-12T04:11:21.842Z,26.00
2023-02-12T04:13:56.508Z,26.00
2023-02-12T04:16:26.524Z,26.00
2023-02-12T04:18:55.688Z,25.90
2023-02-12T04:21:35.115Z,25.90
2023-02-12T04:24:06.521Z,25.90
2023-02-12T04:26:36.916Z,25.90
2023-02-12T04:29:17.988Z,25.90
2023-02-12T04:31:47.361Z,25.90
2023-02-12T04:34:18.505Z,25.80
2023-02-12T04:36:47.691Z,25.80
2023-02-12T04:39:18.282Z,25.80
2023-02-12T04:41:45.980Z,25.70
2023-02-12T04:44:18.298Z,25.70
2023-02-12T04:46:45.967Z,25.70
2023-02-12T04:49:17.053Z,25.70
2023-02-12T04:51:44.925Z,25.70
2023-02-12T04:54:12.655Z,25.60
2023-02-12T04:56:40.361Z,25.60
2023-02-12T04:59:09.231Z,25.60
2023-02-12T05:01:37.508Z,25.60
2023-02-12T05:04:05.732Z,25.50
2023-02-12T05:06:35.520Z,25.50
2023-02-12T05:09:03.230Z,25.50
2023-02-12T05:11:30.925Z,25.50
2023-02-12T05:13:58.782Z,25.50
2023-02-12T05:16:26.550Z,25.50
2023-02-12T05:18:54.267Z,25.40
2023-02-12T05:21:21.950Z,25.40
2023-02-12T05:23:50.980Z,25.40
2023-02-12T05:26:20.343Z,25.40
2023-02-12T05:28:48.116Z,25.30
2023-02-12T05:31:18.814Z,25.30
2023-02-12T05:33:48.920Z,25.30
2023-02-12T05:36:17.356Z,25.30
2023-02-12T05:38:45.072Z,25.30
2023-02-12T05:41:14.865Z,25.30
2023-02-12T05:43:43.624Z,25.30
2023-02-12T05:46:11.420Z,25.20
2023-02-12T05:48:39.351Z,25.20
2023-02-12T05:51:07.782Z,25.20
2023-02-12T05:53:35.564Z,25.20
2023-02-12T05:56:11.091Z,25.20
2023-02-12T05:58:40.200Z,25.20
2023-02-12T06:01:12.163Z,25.10
2023-02-12T06:03:39.844Z,25.10
2023-02-12T06:06:07.619Z,25.10
2023-02-12T06:08:35.464Z,25.00
2023-02-12T06:11:03.706Z,25.00
2023-02-12T06:13:31.664Z,25.00
2023-02-12T06:16:01.082Z,24.90
2023-02-12T06:18:29.059Z,25.00
2023-02-12T06:20:56.770Z,24.90
2023-02-12T06:23:24.691Z,24.90
2023-02-12T06:25:52.564Z,24.90
2023-02-12T06:28:20.267Z,24.90
2023-02-12T06:30:47.984Z,24.80
2023-02-12T06:33:17.027Z,24.80
2023-02-12T06:35:44.822Z,24.80
2023-02-12T06:38:13.187Z,24.80
2023-02-12T06:40:40.919Z,24.80
2023-02-12T06:43:08.613Z,24.80
2023-02-12T06:45:36.332Z,24.70
2023-02-12T06:48:04.008Z,24.70
2023-02-12T06:50:33.025Z,24.70
2023-02-12T06:53:00.730Z,24.70
2023-02-12T06:55:28.391Z,24.70
2023-02-12T06:57:56.087Z,24.60
2023-02-12T07:00:24.184Z,24.60
2023-02-12T07:02:55.486Z,24.60
2023-02-12T07:05:23.540Z,24.60
2023-02-12T07:07:52.629Z,24.50
2023-02-12T07:10:20.433Z,24.60
2023-02-12T07:12:48.135Z,24.50
2023-02-12T07:15:15.856Z,24.50
2023-02-12T07:17:43.634Z,24.50
2023-02-12T07:20:12.271Z,24.50
2023-02-12T07:22:39.966Z,24.50
2023-02-12T07:25:09.319Z,24.50
2023-02-12T07:27:37.728Z,24.50
2023-02-12T07:30:05.979Z,24.50
2023-02-12T07:32:33.670Z,24.50
2023-02-12T07:35:01.361Z,24.50
2023-02-12T07:37:29.126Z,24.40
2023-02-12T07:39:57.085Z,24.40
2023-02-12T07:42:26.134Z,24.30
2023-02-12T07:44:53.825Z,24.40
2023-02-12T07:47:21.518Z,24.40
2023-02-12T07:49:49.194Z,24.40
2023-02-12T07:52:16.918Z,24.40
2023-02-12T07:54:44.625Z,24.40
2023-02-12T07:57:12.494Z,24.30
2023-02-12T07:59:41.488Z,24.30
2023-02-12T08:02:10.466Z,24.30
2023-02-12T08:04:38.169Z,24.30
2023-02-12T08:07:05.883Z,24.30
2023-02-12T08:09:33.604Z,24.30
2023-02-12T08:12:01.364Z,24.30
2023-02-12T08:14:29.238Z,24.30
2023-02-12T08:16:58.253Z,24.30
2023-02-12T08:19:26.890Z,24.30
2023-02-12T08:21:55.187Z,24.20
2023-02-12T08:24:22.947Z,24.20
2023-02-12T08:26:50.846Z,24.20
2023-02-12T08:29:19.863Z,24.10
2023-02-12T08:31:48.672Z,24.20
2023-02-12T08:34:19.165Z,24.20
2023-02-12T08:36:46.924Z,24.20
2023-02-12T08:39:14.965Z,24.20
2023-02-12T08:41:43.453Z,24.10
2023-02-12T08:44:11.665Z,24.10
2023-02-12T08:46:40.386Z,24.20
2023-02-12T08:49:10.040Z,24.10
2023-02-12T08:51:39.790Z,24.10
2023-02-12T08:54:08.486Z,24.10
2023-02-12T08:56:36.823Z,24.00
2023-02-12T08:59:05.718Z,24.00
2023-02-12T09:01:34.812Z,24.00
2023-02-12T09:04:02.649Z,23.90
2023-02-12T09:06:30.406Z,23.90
2023-02-12T09:08:59.467Z,24.00
2023-02-12T09:11:30.614Z,24.00
2023-02-12T09:13:59.266Z,24.10
2023-02-12T09:16:27.217Z,24.20
2023-02-12T09:18:55.321Z,24.30
2023-02-12T09:21:23.101Z,24.40
2023-02-12T09:23:50.916Z,24.50
2023-02-12T09:26:21.589Z,24.60
2023-02-12T09:28:49.795Z,24.70
2023-02-12T09:31:18.595Z,24.80
2023-02-12T09:33:48.606Z,24.90
2023-02-12T09:36:18.088Z,24.90
2023-02-12T09:38:45.808Z,25.20
2023-02-12T09:41:28.809Z,25.20
2023-02-12T09:43:59.048Z,25.20
2023-02-12T09:46:30.355Z,25.30
2023-02-12T09:49:01.930Z,25.40
2023-02-12T09:51:29.660Z,25.50
2023-02-12T09:54:04.054Z,25.60
2023-02-12T09:56:33.092Z,25.60
2023-02-12T09:59:02.812Z,25.50
2023-02-12T10:01:30.658Z,25.50
2023-02-12T10:03:58.470Z,25.30
2023-02-12T10:06:27.636Z,25.30
2023-02-12T10:09:06.792Z,25.30
2023-02-12T10:11:52.976Z,25.30
2023-02-12T10:14:45.493Z,25.40
2023-02-12T10:17:16.354Z,25.40
2023-02-12T10:20:01.161Z,25.50
2023-02-12T10:22:32.845Z,25.50
2023-02-12T10:25:08.095Z,25.60
2023-02-12T10:27:41.804Z,25.70
2023-02-12T10:30:17.834Z,25.70
2023-02-12T10:32:46.175Z,25.80
2023-02-12T10:35:14.973Z,25.80
2023-02-12T10:37:44.832Z,25.80
2023-02-12T10:40:17.964Z,25.80
2023-02-12T10:42:48.164Z,25.90
2023-02-12T10:45:16.643Z,25.90
2023-02-12T10:47:44.815Z,25.80
2023-02-12T10:50:19.755Z,25.80
2023-02-12T10:52:48.880Z,25.90
2023-02-12T10:55:27.084Z,25.80
2023-02-12T10:57:56.298Z,25.90
2023-02-12T11:00:25.808Z,25.90
2023-02-12T11:03:05.710Z,25.90
2023-02-12T11:05:35.807Z,26.00
2023-02-12T11:08:03.936Z,25.90
2023-02-12T11:10:38.295Z,25.90
2023-02-12T11:13:07.564Z,26.00
2023-02-12T11:15:37.695Z,25.90
2023-02-12T11:18:07.441Z,26.00
2023-02-12T11:20:38.380Z,26.00
2023-02-12T11:23:07.243Z,25.90
2023-02-12T11:25:35.969Z,25.90
2023-02-12T11:28:15.561Z,25.90
2023-02-12T11:30:54.190Z,25.90
2023-02-12T11:33:24.989Z,25.90
2023-02-12T11:35:53.719Z,25.90
2023-02-12T11:38:27.034Z,25.80
2023-02-12T11:41:00.298Z,25.90
2023-02-12T11:43:30.961Z,25.80
2023-02-12T11:45:59.136Z,25.70
2023-02-12T11:48:28.393Z,25.80
2023-02-12T11:50:57.173Z,25.70
2023-02-12T11:53:26.226Z,25.80
2023-02-12T11:55:55.651Z,25.70
2023-02-12T11:58:24.602Z,25.70
2023-02-12T12:00:55.817Z,25.70
2023-02-12T12:03:25.893Z,25.60
2023-02-12T12:05:54.626Z,25.60
2023-02-12T12:08:24.933Z,25.50
2023-02-12T12:10:58.246Z,25.50
2023-02-12T12:13:29.001Z,25.50
2023-02-12T12:16:21.952Z,25.50
2023-02-12T12:19:08.885Z,25.50
2023-02-12T12:21:38.963Z,25.40
2023-02-12T12:24:10.047Z,25.40
2023-02-12T12:26:37.745Z,25.30
2023-02-12T12:29:07.052Z,25.30
2023-02-12T12:31:37.877Z,25.40
2023-02-12T12:34:08.389Z,25.20
2023-02-12T12:36:45.356Z,25.20
2023-02-12T12:39:18.535Z,25.20
2023-02-12T12:41:54.306Z,25.20
2023-02-12T12:44:29.932Z,25.20
2023-02-12T12:47:12.018Z,25.10
2023-02-12T12:49:59.509Z,25.10
2023-02-12T12:52:43.548Z,25.00
2023-02-12T12:55:24.678Z,24.90
2023-02-12T12:57:57.255Z,24.90
2023-02-12T13:00:45.877Z,24.80
2023-02-12T13:03:41.832Z,24.70
2023-02-12T13:06:19.102Z,24.60
2023-02-12T13:09:30.098Z,24.50
2023-02-12T13:12:09.582Z,24.50
2023-02-12T13:14:40.983Z,24.40
2023-02-12T13:17:13.670Z,24.40
2023-02-12T13:19:48.198Z,24.40
2023-02-12T13:22:18.320Z,24.40
2023-02-12T13:24:48.775Z,24.30
2023-02-12T13:27:17.782Z,24.20
2023-02-12T13:29:46.080Z,24.20
2023-02-12T13:32:15.451Z,24.10
2023-02-12T13:34:44.863Z,24.00
2023-02-12T13:37:15.665Z,24.10
2023-02-12T13:39:45.053Z,24.60
2023-02-12T13:42:26.570Z,24.50
2023-02-12T13:44:58.312Z,24.50
2023-02-12T13:47:30.859Z,24.50
2023-02-12T13:50:02.154Z,24.50
2023-02-12T13:52:32.207Z,24.60
2023-02-12T13:55:11.993Z,24.50
2023-02-12T13:57:39.747Z,24.60
2023-02-12T14:00:27.349Z,24.70
2023-02-12T14:02:55.035Z,24.70
2023-02-12T14:05:29.948Z,24.70
2023-02-12T14:07:59.172Z,24.70
2023-02-12T14:10:29.201Z,24.70
2023-02-12T14:12:59.059Z,24.80
2023-02-12T14:15:30.918Z,24.80
2023-02-12T14:18:05.987Z,24.80
2023-02-12T14:20:35.131Z,24.80
2023-02-12T14:23:22.141Z,24.90
2023-02-12T14:25:56.630Z,24.90
2023-02-12T14:28:27.136Z,24.90
2023-02-12T14:31:37.820Z,25.00
2023-02-12T14:34:48.242Z,25.00
2023-02-12T14:37:37.893Z,25.00
2023-02-12T14:40:44.324Z,25.10
2023-02-12T14:43:32.823Z,25.00
2023-02-12T14:46:21.245Z,24.90
2023-02-12T14:48:52.369Z,24.90
2023-02-12T14:51:23.289Z,25.00
2023-02-12T14:53:52.282Z,25.00
2023-02-12T14:56:21.439Z,24.90
2023-02-12T14:58:49.400Z,24.90
2023-02-12T15:01:17.218Z,24.90
2023-02-12T15:03:53.497Z,24.90
2023-02-12T15:06:22.164Z,25.80
2023-02-12T15:08:57.099Z,25.40
2023-02-12T15:11:36.612Z,25.30
2023-02-12T15:14:05.561Z,25.20
2023-02-12T15:16:42.821Z,25.20
2023-02-12T15:19:19.479Z,25.20
2023-02-12T15:21:47.303Z,25.10
2023-02-12T15:24:22.606Z,25.00
2023-02-12T15:26:51.784Z,25.00
2023-02-12T15:29:23.278Z,24.90
2023-02-12T15:31:52.015Z,24.90
2023-02-12T15:34:21.385Z,24.80
2023-02-12T15:36:49.099Z,24.70
2023-02-12T15:39:20.240Z,24.70
2023-02-12T15:41:48.102Z,24.60
2023-02-12T15:44:27.606Z,24.60
2023-02-12T15:47:03.782Z,24.50
2023-02-12T15:49:35.913Z,24.50
2023-02-12T15:52:05.288Z,24.50
2023-02-12T15:54:34.546Z,24.50
2023-02-12T15:57:03.875Z,24.50
2023-02-12T15:59:31.636Z,24.50
2023-02-12T16:02:04.559Z,24.50
2023-02-12T16:04:33.276Z,24.50
2023-02-12T16:07:01.102Z,24.40
2023-02-12T16:09:30.490Z,24.40
2023-02-12T16:12:01.140Z,24.40
2023-02-12T16:14:31.359Z,24.30
2023-02-12T16:16:59.410Z,24.20
2023-02-12T16:19:27.654Z,24.20
2023-02-12T16:21:56.624Z,24.00
2023-02-12T16:24:28.473Z,23.90
2023-02-12T16:26:56.720Z,23.80
2023-02-12T16:29:25.781Z,23.80
2023-02-12T16:31:55.056Z,23.70
2023-02-12T16:34:34.464Z,23.80
2023-02-12T16:37:02.272Z,23.80
2023-02-12T16:40:03.520Z,23.70
2023-02-12T16:42:31.175Z,23.80
2023-02-12T16:45:00.205Z,23.70
2023-02-12T16:47:27.944Z,23.70
2023-02-12T16:49:58.114Z,23.60
2023-02-12T16:52:32.737Z,23.60
2023-02-12T16:55:00.428Z,23.60
2023-02-12T16:57:28.088Z,23.60
2023-02-12T16:59:55.753Z,23.50
2023-02-12T17:02:24.768Z,23.60
2023-02-12T17:04:52.562Z,23.50
2023-02-12T17:07:22.275Z,23.40
2023-02-12T17:09:50.028Z,23.40
2023-02-12T17:12:17.781Z,23.40
2023-02-12T17:14:45.461Z,23.40
2023-02-12T17:17:13.133Z,23.40
2023-02-12T17:19:42.229Z,23.30
2023-02-12T17:22:15.803Z,23.30
2023-02-12T17:24:43.487Z,23.20
2023-02-12T17:27:13.684Z,23.20
2023-02-12T17:29:41.338Z,23.20
2023-02-12T17:32:09.380Z,23.10
2023-02-12T17:34:48.125Z,23.10
2023-02-12T17:37:18.947Z,23.10
2023-02-12T17:39:46.677Z,23.00
2023-02-12T17:42:14.344Z,23.00
2023-02-12T17:44:42.139Z,23.00
2023-02-12T17:47:09.835Z,23.00
2023-02-12T17:49:39.741Z,23.00
2023-02-12T17:52:07.650Z,23.00
2023-02-12T17:54:36.700Z,22.90
2023-02-12T17:57:04.507Z,23.00
2023-02-12T17:59:32.226Z,22.90
2023-02-12T18:02:00.414Z,22.90
2023-02-12T18:04:28.147Z,22.90
2023-02-12T18:06:57.134Z,22.90
2023-02-12T18:09:24.828Z,22.90
2023-02-12T18:11:53.841Z,22.80
2023-02-12T18:14:21.509Z,22.80
2023-02-12T18:16:49.234Z,22.80
2023-02-12T18:19:17.193Z,22.80
2023-02-12T18:21:44.834Z,22.80
2023-02-12T18:24:12.503Z,22.70
2023-02-12T18:26:40.160Z,22.70
2023-02-12T18:29:09.134Z,22.70
2023-02-12T18:31:36.923Z,22.70
2023-02-12T18:34:05.483Z,22.70
2023-02-12T18:36:33.295Z,22.70
2023-02-12T18:39:01.134Z,22.70
2023-02-12T18:41:29.979Z,22.70
2023-02-12T18:43:57.831Z,22.70
2023-02-12T18:46:27.709Z,22.60
2023-02-12T18:48:55.685Z,22.60
2023-02-12T18:51:24.172Z,22.60
2023-02-12T18:53:54.905Z,22.50
2023-02-12T18:56:22.595Z,22.60
2023-02-12T18:58:54.643Z,22.50
2023-02-12T19:01:22.368Z,22.50
2023-02-12T19:03:53.648Z,22.50
2023-02-12T19:06:21.396Z,22.60
2023-02-12T19:08:49.056Z,22.60
2023-02-12T19:11:17.215Z,22.50
2023-02-12T19:13:44.869Z,22.40
2023-02-12T19:16:15.066Z,22.40
2023-02-12T19:18:42.821Z,22.40
2023-02-12T19:21:14.093Z,22.30
2023-02-12T19:23:41.767Z,22.30
2023-02-12T19:26:10.375Z,22.30
2023-02-12T19:28:38.606Z,22.30
2023-02-12T19:31:14.272Z,22.30
2023-02-12T19:33:43.135Z,22.30
2023-02-12T19:36:14.167Z,22.30
2023-02-12T19:38:41.938Z,22.20
2023-02-12T19:41:10.581Z,22.20
2023-02-12T19:43:38.346Z,22.20
2023-02-12T19:46:06.962Z,22.20
2023-02-12T19:48:35.130Z,22.10
2023-02-12T19:51:02.996Z,22.10
2023-02-12T19:53:31.960Z,22.10
2023-02-12T19:56:01.971Z,22.10
2023-02-12T19:58:30.047Z,22.10
2023-02-12T20:00:58.135Z,22.00
2023-02-12T20:03:26.306Z,22.10
2023-02-12T20:06:00.903Z,22.00
2023-02-12T20:08:28.609Z,22.00
2023-02-12T20:10:57.968Z,22.00
2023-02-12T20:13:25.812Z,22.00
2023-02-12T20:15:53.552Z,22.00
2023-02-12T20:18:21.221Z,22.00
2023-02-12T20:20:48.883Z,22.00
2023-02-12T20:23:16.548Z,21.90
2023-02-12T20:25:44.616Z,21.90
2023-02-12T20:28:13.593Z,21.90
2023-02-12T20:30:41.797Z,21.90
2023-02-12T20:33:09.740Z,21.90
2023-02-12T20:35:37.748Z,21.90
2023-02-12T20:38:05.566Z,21.90
2023-02-12T20:40:33.335Z,21.90
2023-02-12T20:43:01.249Z,21.90
2023-02-12T20:45:30.295Z,21.90
2023-02-12T20:47:58.048Z,21.90
2023-02-12T20:50:25.696Z,21.80
2023-02-12T20:52:53.495Z,21.80
2023-02-12T20:55:21.350Z,21.80
2023-02-12T20:57:50.027Z,21.90
2023-02-12T21:00:18.764Z,21.90
2023-02-12T21:02:47.771Z,21.80
2023-02-12T21:05:15.593Z,21.80
2023-02-12T21:07:43.242Z,21.90
2023-02-12T21:10:11.498Z,21.90
2023-02-12T21:12:39.135Z,21.90
2023-02-12T21:15:07.117Z,21.90
2023-02-12T21:17:34.881Z,21.90
2023-02-12T21:20:03.975Z,21.90
2023-02-12T21:22:31.625Z,21.90
2023-02-12T21:24:59.302Z,21.90
2023-02-12T21:27:27.228Z,21.90
2023-02-12T21:29:54.879Z,21.90
2023-02-12T21:32:22.601Z,21.90
2023-02-12T21:34:50.285Z,21.90
2023-02-12T21:37:19.253Z,21.90
2023-02-12T21:39:46.940Z,22.00
2023-02-12T21:42:14.595Z,22.00
2023-02-12T21:44:42.311Z,21.90
2023-02-12T21:47:10.233Z,22.00
2023-02-12T21:49:37.912Z,22.00
2023-02-12T21:52:06.928Z,22.00
2023-02-12T21:54:35.924Z,22.00
2023-02-12T21:57:03.609Z,22.00
2023-02-12T21:59:32.457Z,22.00
2023-02-12T22:02:00.607Z,22.00
2023-02-12T22:04:28.436Z,22.00
2023-02-12T22:06:56.418Z,22.00
2023-02-12T22:09:24.233Z,22.00
2023-02-12T22:11:53.360Z,22.00
2023-02-12T22:14:21.566Z,22.00
2023-02-12T22:16:49.451Z,22.00
2023-02-12T22:19:17.237Z,22.00
2023-02-12T22:21:45.378Z,22.00
2023-02-12T22:24:14.733Z,22.00
2023-02-12T22:26:42.424Z,22.10
2023-02-12T22:29:12.597Z,22.10
2023-02-12T22:31:40.857Z,22.10
2023-02-12T22:34:11.902Z,22.10
2023-02-12T22:36:40.227Z,22.10
2023-02-12T22:39:07.910Z,22.10
2023-02-12T22:41:35.607Z,22.10
2023-02-12T22:44:04.943Z,22.10
2023-02-12T22:46:35.989Z,22.10
2023-02-12T22:49:03.667Z,22.10
2023-02-12T22:51:32.191Z,22.10
2023-02-12T22:53:59.953Z,22.20
2023-02-12T22:56:27.669Z,22.20
2023-02-12T22:58:55.944Z,22.20
2023-02-12T23:01:23.877Z,22.20
2023-02-12T23:03:52.973Z,22.20
2023-02-12T23:06:21.864Z,22.30
2023-02-12T23:08:50.617Z,22.30
2023-02-12T23:11:18.808Z,22.20
2023-02-12T23:13:46.565Z,22.30
2023-02-12T23:16:14.349Z,22.30
2023-02-12T23:18:42.074Z,22.30
2023-02-12T23:21:11.046Z,22.30
2023-02-12T23:23:38.713Z,22.30
2023-02-12T23:26:06.597Z,22.30
2023-02-12T23:28:34.361Z,22.40
2023-02-12T23:31:02.558Z,22.40
2023-02-12T23:33:30.469Z,22.40
2023-02-12T23:35:58.162Z,22.40
2023-02-12T23:38:27.189Z,22.40
2023-02-12T23:40:54.971Z,22.40
2023-02-12T23:43:22.707Z,22.40
2023-02-12T23:45:50.390Z,22.50
2023-02-12T23:48:18.095Z,22.50
2023-02-12T23:50:48.739Z,22.50
2023-02-12T23:53:18.192Z,22.50
2023-02-12T23:55:47.183Z,22.50
2023-02-12T23:58:14.814Z,22.60
